CYNE

Norway House Airport

Norway House, Manitoba, Canada
METAR CYNE 221700Z AUTO 21018G29KT 9SM OVC035 07/02 A2969 RMK SLP063
Observed Flight Rules
Apr-22 @ 17:00 UTC (an hour ago) Visual Flight Rules
Wind Visibility Clouds
210° at 18 knots
 Gusting to 29 knots
9 miles
  • Overcast at 3,500' AGL
Temperatures Readings
Current 7°C / 45°F
Dewpoint 2°C / 36°F
Humidity 71%
Altimeter 29.69" Hg
Pressure 1006.3 hPa
Elevation 223
METAR CYNE 221700Z AUTO 21018G29KT 9SM OVC035 07/02 A2969 RMK SLP063
Observed Flight Rules
Apr-22 @ 17:00 UTC
(an hour ago)
VFR
Wind Visibility
210° at 18 knots
 Gusting to 29 knots
9 miles
Clouds
  • Overcast at 3,500' AGL
Temperature Dewpoint
7°C / 45°F 2°C / 36°F
Humidity Altimeter Pressure
71% 29.69" Hg 1006.3 hPa